Time;durP1;ratioP1;P1;durP2;ratioP2;P2;SDS_P1;SDS_P2;PMS_P1;PMS_P2;Temp;Humidity;BMP_temperature;BMP_pressure;BME280_temperature;BME280_humidity;BME280_pressure;Samples;Min_cycle;Max_cycle;Signal;HPM_P1;HPM_P2
2023/01/02 00:00:52;;;;;;;;;3.00;3.00;;;;;;;;5080891;28;9141;-78
2023/01/02 00:03:21;;;;;;;;;8.00;6.33;;;;;;;;5069934;28;9120;-78
2023/01/02 00:05:49;;;;;;;;;9.67;7.00;;;;;;;;5078700;28;9141;-78
2023/01/02 00:08:17;;;;;;;;;5.67;5.67;;;;;;;;5051978;28;9001;-78
2023/01/02 00:10:44;;;;;;;;;6.33;6.33;;;;;;;;5087650;28;8997;-78
2023/01/02 00:13:12;;;;;;;;;8.00;6.00;;;;;;;;5058994;28;9125;-79
2023/01/02 00:15:39;;;;;;;;;10.00;6.67;;;;;;;;5061992;28;8924;-78
2023/01/02 00:18:08;;;;;;;;;8.00;6.67;;;;;;;;5062934;28;9074;-78
2023/01/02 00:20:37;;;;;;;;;8.00;8.00;;;;;;;;5079027;28;9102;-79
2023/01/02 00:23:04;;;;;;;;;6.00;5.67;;;;;;;;5060488;28;9967;-79
2023/01/02 00:25:33;;;;;;;;;6.75;5.75;;;;;;;;5069694;28;8986;-78
2023/01/02 00:28:01;;;;;;;;;6.75;6.75;;;;;;;;5064128;28;8942;-78
2023/01/02 00:30:28;;;;;;;;;5.67;5.67;;;;;;;;5064883;28;8858;-79
2023/01/02 00:32:56;;;;;;;;;4.67;4.67;;;;;;;;5061978;28;9783;-78
2023/01/02 00:35:23;;;;;;;;;6.67;5.67;;;;;;;;5061797;28;9025;-79
2023/01/02 00:37:54;;;;;;;;;6.33;5.00;;;;;;;;5064200;28;9010;-79
2023/01/02 00:40:21;;;;;;;;;6.33;6.33;;;;;;;;5069839;28;8948;-78
2023/01/02 00:42:48;;;;;;;;;5.00;5.00;;;;;;;;5068412;28;8922;-78
2023/01/02 00:45:16;;;;;;;;;6.00;6.00;;;;;;;;5053766;28;8931;-78
2023/01/02 00:47:43;;;;;;;;;4.00;4.00;;;;;;;;5076340;28;8864;-78
2023/01/02 00:50:11;;;;;;;;;4.00;4.00;;;;;;;;5066086;28;8882;-78
2023/01/02 00:52:38;;;;;;;;;7.00;4.25;;;;;;;;5066621;28;8847;-77
2023/01/02 00:55:08;;;;;;;;;5.75;5.00;;;;;;;;5074883;28;8830;-78
2023/01/02 00:57:36;;;;;;;;;8.00;6.00;;;;;;;;5033516;28;8851;-78
2023/01/02 01:00:04;;;;;;;;;6.33;6.33;;;;;;;;5031286;28;8910;-78
2023/01/02 01:02:32;;;;;;;;;4.00;4.00;;;;;;;;5026271;28;8973;-78
2023/01/02 01:05:00;;;;;;;;;4.50;4.00;;;;;;;;5044316;28;8966;-77
2023/01/02 01:07:28;;;;;;;;;6.50;4.00;;;;;;;;5011243;28;8850;-78
2023/01/02 01:09:56;;;;;;;;;3.25;3.25;;;;;;;;5028565;28;8861;-77
2023/01/02 01:12:25;;;;;;;;;3.50;3.00;;;;;;;;5016219;28;8855;-78
2023/01/02 01:14:52;;;;;;;;;4.00;3.00;;;;;;;;4992159;28;8856;-78
2023/01/02 01:17:20;;;;;;;;;6.00;3.00;;;;;;;;5056581;28;9126;-77
2023/01/02 01:19:47;;;;;;;;;3.00;2.00;;;;;;;;5010123;28;8996;-78
2023/01/02 01:22:14;;;;;;;;;2.50;1.50;;;;;;;;5041681;28;8963;-78
2023/01/02 01:24:42;;;;;;;;;3.00;3.00;;;;;;;;5000559;28;8849;-78
2023/01/02 01:27:10;;;;;;;;;2.25;2.25;;;;;;;;5036062;28;8975;-78
2023/01/02 01:29:39;;;;;;;;;4.00;2.67;;;;;;;;5048088;28;8868;-78
2023/01/02 01:32:06;;;;;;;;;3.00;3.00;;;;;;;;5033983;28;9017;-78
2023/01/02 01:34:34;;;;;;;;;3.50;3.00;;;;;;;;5051900;28;8865;-78
2023/01/02 01:37:01;;;;;;;;;3.67;2.00;;;;;;;;5033761;28;8866;-78
2023/01/02 01:39:29;;;;;;;;;1.00;1.00;;;;;;;;5045869;28;8931;-78
2023/01/02 01:41:58;;;;;;;;;2.00;2.00;;;;;;;;5012730;28;9740;-78
2023/01/02 01:44:49;;;;;;;;;3.00;3.00;;;;;;;;5004703;28;8933;-78
2023/01/02 01:47:25;;;;;;;;;2.25;2.25;;;;;;;;5033434;28;8942;-78
2023/01/02 01:49:57;;;;;;;;;1.75;1.75;;;;;;;;5038006;28;8917;-78
2023/01/02 01:52:28;;;;;;;;;1.50;1.50;;;;;;;;5027814;28;8870;-78
2023/01/02 01:54:58;;;;;;;;;2.00;2.00;;;;;;;;5000042;28;8895;-78
2023/01/02 01:57:30;;;;;;;;;1.75;1.25;;;;;;;;5029487;28;8841;-78
2023/01/02 02:00:02;;;;;;;;;3.75;2.00;;;;;;;;4993134;28;8892;-78
2023/01/02 02:02:30;;;;;;;;;3.00;1.33;;;;;;;;4993834;28;8862;-79
2023/01/02 02:05:00;;;;;;;;;2.00;1.00;;;;;;;;5017317;28;8954;-79
2023/01/02 02:07:27;;;;;;;;;1.00;1.00;;;;;;;;5014669;28;8879;-78
2023/01/02 02:10:00;;;;;;;;;1.00;1.00;;;;;;;;4992088;28;8927;-78
2023/01/02 02:12:27;;;;;;;;;3.33;1.67;;;;;;;;4993760;28;9824;-79
2023/01/02 02:14:55;;;;;;;;;2.00;1.00;;;;;;;;4980880;28;9067;-78
2023/01/02 02:17:33;;;;;;;;;1.00;1.00;;;;;;;;5034262;28;9008;-78
2023/01/02 02:20:15;;;;;;;;;1.00;1.00;;;;;;;;5005085;28;8943;-78
2023/01/02 02:23:04;;;;;;;;;2.00;0.00;;;;;;;;5016612;28;8930;-78
2023/01/02 02:25:44;;;;;;;;;0.33;0.33;;;;;;;;4992786;28;8997;-78
2023/01/02 02:28:42;;;;;;;;;1.00;1.00;;;;;;;;5033522;28;9816;-78
2023/01/02 02:31:14;;;;;;;;;2.00;0.00;;;;;;;;4994339;28;9246;-78
2023/01/02 02:33:46;;;;;;;;;1.00;1.00;;;;;;;;4996565;28;9081;-79
2023/01/02 02:36:19;;;;;;;;;1.00;1.00;;;;;;;;5030887;28;9848;-79
2023/01/02 02:38:58;;;;;;;;;0.00;0.00;;;;;;;;5029528;28;8957;-78
2023/01/02 02:41:34;;;;;;;;;0.00;0.00;;;;;;;;4997388;28;9067;-78
2023/01/02 02:44:07;;;;;;;;;3.00;1.00;;;;;;;;5016776;28;9104;-78
2023/01/02 02:46:42;;;;;;;;;2.00;0.00;;;;;;;;5000881;28;9014;-79
2023/01/02 02:49:14;;;;;;;;;0.67;0.67;;;;;;;;4996559;28;9064;-78
2023/01/02 02:51:48;;;;;;;;;0.00;0.00;;;;;;;;4991220;28;9034;-79
2023/01/02 02:54:20;;;;;;;;;2.00;1.00;;;;;;;;4998394;28;9823;-78
2023/01/02 02:56:49;;;;;;;;;1.00;1.00;;;;;;;;5013655;28;9081;-78
2023/01/02 02:59:17;;;;;;;;;2.00;1.00;;;;;;;;4989605;28;9095;-78
2023/01/02 03:01:46;;;;;;;;;0.00;0.00;;;;;;;;4997581;28;9912;-79
2023/01/02 03:04:17;;;;;;;;;0.00;0.00;;;;;;;;5033965;28;11395;-79
2023/01/02 03:06:56;;;;;;;;;0.00;0.00;;;;;;;;5013708;28;9011;-79
2023/01/02 03:09:30;;;;;;;;;0.00;0.00;;;;;;;;5010518;28;9177;-78
2023/01/02 03:12:07;;;;;;;;;0.00;0.00;;;;;;;;5029479;28;8994;-79
2023/01/02 03:14:43;;;;;;;;;2.00;0.00;;;;;;;;4993919;28;9101;-80
2023/01/02 03:17:20;;;;;;;;;0.00;0.00;;;;;;;;5014070;28;9152;-79
2023/01/02 03:19:53;;;;;;;;;0.00;0.00;;;;;;;;4997660;28;9032;-79
2023/01/02 03:22:23;;;;;;;;;0.00;0.00;;;;;;;;4993341;28;9002;-79
2023/01/02 03:24:55;;;;;;;;;0.33;0.33;;;;;;;;4994952;28;9012;-79
2023/01/02 03:27:25;;;;;;;;;0.00;0.00;;;;;;;;5026319;28;9035;-78
2023/01/02 03:29:57;;;;;;;;;0.00;0.00;;;;;;;;5006423;28;9181;-79
2023/01/02 03:32:29;;;;;;;;;1.00;1.00;;;;;;;;5006704;28;8986;-79
2023/01/02 03:34:58;;;;;;;;;1.00;1.00;;;;;;;;5019371;28;9015;-79
2023/01/02 03:37:29;;;;;;;;;0.00;0.00;;;;;;;;5010394;28;9003;-78
2023/01/02 03:39:58;;;;;;;;;0.00;0.00;;;;;;;;4991169;28;9056;-79
2023/01/02 03:42:28;;;;;;;;;2.00;2.00;;;;;;;;4996181;28;9026;-79
2023/01/02 03:45:01;;;;;;;;;0.00;0.00;;;;;;;;5030750;28;9091;-79
2023/01/02 03:47:35;;;;;;;;;0.33;0.33;;;;;;;;5047182;28;9010;-79
2023/01/02 03:50:08;;;;;;;;;0.67;0.67;;;;;;;;5029037;28;9053;-79
2023/01/02 03:52:35;;;;;;;;;3.33;0.33;;;;;;;;5025902;28;9020;-79
2023/01/02 03:55:03;;;;;;;;;0.00;0.00;;;;;;;;5042017;28;9782;-79
2023/01/02 03:57:36;;;;;;;;;2.00;0.33;;;;;;;;4987596;28;9080;-79
2023/01/02 04:00:07;;;;;;;;;0.00;0.00;;;;;;;;5034691;28;9016;-78
2023/01/02 04:02:39;;;;;;;;;0.50;0.50;;;;;;;;4999713;28;9090;-79
2023/01/02 04:05:14;;;;;;;;;0.00;0.00;;;;;;;;5046862;28;9010;-79
2023/01/02 04:07:48;;;;;;;;;0.00;0.00;;;;;;;;5029938;28;9085;-79
2023/01/02 04:10:17;;;;;;;;;0.00;0.00;;;;;;;;5048331;28;9039;-79
2023/01/02 04:12:50;;;;;;;;;0.00;0.00;;;;;;;;5001780;28;9022;-79
2023/01/02 04:15:20;;;;;;;;;0.00;0.00;;;;;;;;5003511;28;9072;-79
2023/01/02 04:17:51;;;;;;;;;0.00;0.00;;;;;;;;5022885;28;9079;-79
2023/01/02 04:20:22;;;;;;;;;0.00;0.00;;;;;;;;5057208;28;9181;-79
2023/01/02 04:22:53;;;;;;;;;0.00;0.00;;;;;;;;5061094;28;9073;-79
2023/01/02 04:25:21;;;;;;;;;0.00;0.00;;;;;;;;5017417;28;9154;-79
2023/01/02 04:27:53;;;;;;;;;0.00;0.00;;;;;;;;5000648;28;9198;-78
2023/01/02 04:30:20;;;;;;;;;0.00;0.00;;;;;;;;4991445;28;9094;-79
2023/01/02 04:32:50;;;;;;;;;0.00;0.00;;;;;;;;4993152;28;9206;-78
2023/01/02 04:35:19;;;;;;;;;0.00;0.00;;;;;;;;5046561;28;9092;-78
2023/01/02 04:37:47;;;;;;;;;1.33;0.00;;;;;;;;5045482;28;9239;-79
2023/01/02 04:40:18;;;;;;;;;0.00;0.00;;;;;;;;5000368;28;9263;-79
2023/01/02 04:42:45;;;;;;;;;0.00;0.00;;;;;;;;5042108;28;9092;-79
2023/01/02 04:45:13;;;;;;;;;0.00;0.00;;;;;;;;5005630;28;9177;-79
2023/01/02 04:47:41;;;;;;;;;0.00;0.00;;;;;;;;5004131;28;9199;-80
2023/01/02 04:50:11;;;;;;;;;0.00;0.00;;;;;;;;5011118;28;9218;-78
2023/01/02 04:52:40;;;;;;;;;0.33;0.00;;;;;;;;5007613;28;9264;-79
2023/01/02 04:55:09;;;;;;;;;0.00;0.00;;;;;;;;5027907;28;9304;-78
2023/01/02 04:57:36;;;;;;;;;1.00;0.00;;;;;;;;5036690;28;9181;-79
2023/01/02 05:00:05;;;;;;;;;1.00;0.00;;;;;;;;5014994;28;9086;-79
2023/01/02 05:02:35;;;;;;;;;0.00;0.00;;;;;;;;5017755;28;9272;-79
2023/01/02 05:05:03;;;;;;;;;0.00;0.00;;;;;;;;5042656;28;10070;-78
2023/01/02 05:07:33;;;;;;;;;0.00;0.00;;;;;;;;5014603;28;9266;-79
2023/01/02 05:10:00;;;;;;;;;0.00;0.00;;;;;;;;4995275;28;9085;-78
2023/01/02 05:12:28;;;;;;;;;0.00;0.00;;;;;;;;4988517;28;9257;-79
2023/01/02 05:14:55;;;;;;;;;0.00;0.00;;;;;;;;4998565;28;9154;-78
2023/01/02 05:17:23;;;;;;;;;0.00;0.00;;;;;;;;5002866;28;9199;-78
2023/01/02 05:19:50;;;;;;;;;0.00;0.00;;;;;;;;5007956;28;9246;-78
2023/01/02 05:25:04;;;;;;;;;1.00;0.00;;;;;;;;5009409;28;9245;-78
2023/01/02 05:27:31;;;;;;;;;0.67;0.00;;;;;;;;5005970;28;9334;-80
2023/01/02 05:29:59;;;;;;;;;0.00;0.00;;;;;;;;5032723;28;9257;-79
2023/01/02 05:32:27;;;;;;;;;1.00;0.00;;;;;;;;5000144;28;9359;-78
2023/01/02 05:34:55;;;;;;;;;0.00;0.00;;;;;;;;5039837;28;9258;-79
2023/01/02 05:37:22;;;;;;;;;0.00;0.00;;;;;;;;5020811;28;9204;-78
2023/01/02 05:39:50;;;;;;;;;0.00;0.00;;;;;;;;5004710;28;9331;-78
2023/01/02 05:42:19;;;;;;;;;0.00;0.00;;;;;;;;5023042;28;9177;-78
2023/01/02 05:44:48;;;;;;;;;1.00;0.00;;;;;;;;5037429;28;9292;-79
2023/01/02 05:47:15;;;;;;;;;0.00;0.00;;;;;;;;5044072;28;9272;-78
2023/01/02 05:49:43;;;;;;;;;0.00;0.00;;;;;;;;5034883;28;9261;-79
2023/01/02 05:52:10;;;;;;;;;0.00;0.00;;;;;;;;4998278;28;9252;-78
2023/01/02 05:54:37;;;;;;;;;0.00;0.00;;;;;;;;4999888;28;9243;-79
2023/01/02 05:57:07;;;;;;;;;0.00;0.00;;;;;;;;5033514;28;9235;-78
2023/01/02 05:59:36;;;;;;;;;0.00;0.00;;;;;;;;5021143;28;9196;-78
2023/01/02 06:02:03;;;;;;;;;0.00;0.00;;;;;;;;5022425;28;9266;-78
2023/01/02 06:04:31;;;;;;;;;0.00;0.00;;;;;;;;5001675;28;10105;-79
2023/01/02 06:06:58;;;;;;;;;0.00;0.00;;;;;;;;5010063;28;9327;-78
2023/01/02 06:09:25;;;;;;;;;0.00;0.00;;;;;;;;5038322;28;9437;-79
2023/01/02 06:11:53;;;;;;;;;0.00;0.00;;;;;;;;5023713;28;9407;-79
2023/01/02 06:14:22;;;;;;;;;0.00;0.00;;;;;;;;5005766;28;9395;-79
2023/01/02 06:16:52;;;;;;;;;0.00;0.00;;;;;;;;5032687;28;10006;-79
2023/01/02 06:19:19;;;;;;;;;0.00;0.00;;;;;;;;5036504;28;9413;-79
2023/01/02 06:21:46;;;;;;;;;0.00;0.00;;;;;;;;4996075;28;9497;-78
2023/01/02 06:24:14;;;;;;;;;0.00;0.00;;;;;;;;5046705;28;9494;-79
2023/01/02 06:26:41;;;;;;;;;0.00;0.00;;;;;;;;4983741;28;9599;-79
2023/01/02 06:29:09;;;;;;;;;0.00;0.00;;;;;;;;5008892;28;9406;-79
2023/01/02 06:31:39;;;;;;;;;0.00;0.00;;;;;;;;4983303;28;9606;-79
2023/01/02 06:34:09;;;;;;;;;0.00;0.00;;;;;;;;5007185;28;9586;-79
2023/01/02 06:36:36;;;;;;;;;0.00;0.00;;;;;;;;5019665;28;9662;-79
2023/01/02 06:39:04;;;;;;;;;0.00;0.00;;;;;;;;4999254;28;9531;-79
2023/01/02 06:41:32;;;;;;;;;0.00;0.00;;;;;;;;4995972;28;9699;-80
2023/01/02 06:43:59;;;;;;;;;0.00;0.00;;;;;;;;4993103;28;9718;-79
2023/01/02 06:46:27;;;;;;;;;0.00;0.00;;;;;;;;4993485;28;9579;-80
2023/01/02 06:48:54;;;;;;;;;0.00;0.00;;;;;;;;5028825;28;9567;-78
2023/01/02 06:51:23;;;;;;;;;0.00;0.00;;;;;;;;5038843;28;9462;-78
2023/01/02 06:53:51;;;;;;;;;0.50;0.00;;;;;;;;5005848;28;9465;-79
2023/01/02 06:56:20;;;;;;;;;0.00;0.00;;;;;;;;5012065;28;9623;-79
2023/01/02 06:58:47;;;;;;;;;0.00;0.00;;;;;;;;4996901;28;9395;-79
2023/01/02 07:01:17;;;;;;;;;0.00;0.00;;;;;;;;5007692;28;9492;-79
2023/01/02 07:03:45;;;;;;;;;0.00;0.00;;;;;;;;5035378;28;9389;-79
2023/01/02 07:06:14;;;;;;;;;0.00;0.00;;;;;;;;5048758;28;9468;-79
2023/01/02 07:08:45;;;;;;;;;0.00;0.00;;;;;;;;5036958;28;9533;-80
2023/01/02 07:11:15;;;;;;;;;0.00;0.00;;;;;;;;4996683;28;9350;-79
2023/01/02 07:13:43;;;;;;;;;0.00;0.00;;;;;;;;5016657;28;9401;-79
2023/01/02 07:16:13;;;;;;;;;0.00;0.00;;;;;;;;5002177;28;9458;-79
2023/01/02 07:18:40;;;;;;;;;0.00;0.00;;;;;;;;5043165;28;10039;-80
2023/01/02 07:21:09;;;;;;;;;0.00;0.00;;;;;;;;5012069;28;9413;-79
2023/01/02 07:23:37;;;;;;;;;0.00;0.00;;;;;;;;5044425;28;9436;-79
2023/01/02 07:26:07;;;;;;;;;0.00;0.00;;;;;;;;5041205;28;9316;-79
2023/01/02 07:28:35;;;;;;;;;0.00;0.00;;;;;;;;5014445;28;10215;-78
2023/01/02 07:31:03;;;;;;;;;0.00;0.00;;;;;;;;5052777;28;9369;-79
2023/01/02 07:33:32;;;;;;;;;0.00;0.00;;;;;;;;5046256;28;9354;-79
2023/01/02 07:36:01;;;;;;;;;10.75;10.75;;;;;;;;5007002;28;9476;-79
2023/01/02 07:38:28;;;;;;;;;1.00;1.00;;;;;;;;5034064;28;9755;-78
2023/01/02 07:40:56;;;;;;;;;5.00;2.75;;;;;;;;5014023;28;9357;-79
2023/01/02 07:43:25;;;;;;;;;2.00;2.00;;;;;;;;5005750;28;9562;-82
2023/01/02 07:45:52;;;;;;;;;4.50;4.50;;;;;;;;5003239;28;9390;-79
2023/01/02 07:48:20;;;;;;;;;2.00;2.00;;;;;;;;5024448;28;9677;-78
2023/01/02 07:50:48;;;;;;;;;1.00;1.00;;;;;;;;5016669;28;9395;-78
2023/01/02 07:53:15;;;;;;;;;1.00;1.00;;;;;;;;4990283;28;9404;-78
2023/01/02 07:55:43;;;;;;;;;1.00;1.00;;;;;;;;5008696;28;9372;-78
2023/01/02 07:58:10;;;;;;;;;1.00;1.00;;;;;;;;5079743;28;9253;-78
2023/01/02 08:00:39;;;;;;;;;1.00;1.00;;;;;;;;5079995;28;9174;-78
2023/01/02 08:03:07;;;;;;;;;1.00;1.00;;;;;;;;5066141;28;9188;-78
2023/01/02 08:05:34;;;;;;;;;0.00;0.00;;;;;;;;5063191;28;9283;-76
2023/01/02 08:08:02;;;;;;;;;0.67;0.67;;;;;;;;5046654;28;9196;-78
2023/01/02 08:10:29;;;;;;;;;0.00;0.00;;;;;;;;5063265;28;9233;-79
2023/01/02 08:12:59;;;;;;;;;0.67;0.67;;;;;;;;5071641;28;9086;-76
2023/01/02 08:15:26;;;;;;;;;0.33;0.33;;;;;;;;5072652;28;9205;-76
2023/01/02 08:17:57;;;;;;;;;0.00;0.00;;;;;;;;5072217;28;9224;-77
2023/01/02 08:20:24;;;;;;;;;0.00;0.00;;;;;;;;5078723;28;9255;-77
2023/01/02 08:22:52;;;;;;;;;0.00;0.00;;;;;;;;5078549;28;9259;-77
2023/01/02 08:25:19;;;;;;;;;0.00;0.00;;;;;;;;5079701;28;9281;-77
2023/01/02 08:27:47;;;;;;;;;0.00;0.00;;;;;;;;5058008;28;9336;-77
2023/01/02 08:30:14;;;;;;;;;0.00;0.00;;;;;;;;5076067;28;9332;-76
2023/01/02 08:32:42;;;;;;;;;0.00;0.00;;;;;;;;5079714;28;9383;-77
2023/01/02 08:35:11;;;;;;;;;0.00;0.00;;;;;;;;5071332;28;9366;-77
2023/01/02 08:37:38;;;;;;;;;0.00;0.00;;;;;;;;5070439;28;9326;-76
2023/01/02 08:40:06;;;;;;;;;0.00;0.00;;;;;;;;5076959;28;9397;-77
2023/01/02 08:42:34;;;;;;;;;0.00;0.00;;;;;;;;5075236;28;9371;-77
2023/01/02 08:45:01;;;;;;;;;0.00;0.00;;;;;;;;5048884;28;9433;-77
2023/01/02 08:47:29;;;;;;;;;0.00;0.00;;;;;;;;5080722;28;9295;-77
2023/01/02 08:49:56;;;;;;;;;0.00;0.00;;;;;;;;5056808;28;9407;-77
2023/01/02 08:52:25;;;;;;;;;0.00;0.00;;;;;;;;5077936;28;9494;-77
2023/01/02 08:54:52;;;;;;;;;1.00;0.00;;;;;;;;5073456;28;9499;-77
2023/01/02 08:57:20;;;;;;;;;0.00;0.00;;;;;;;;5081476;28;9602;-77
2023/01/02 08:59:47;;;;;;;;;0.00;0.00;;;;;;;;5064619;28;9579;-77
2023/01/02 09:02:16;;;;;;;;;1.00;0.00;;;;;;;;5079592;28;9577;-77
2023/01/02 09:04:43;;;;;;;;;0.00;0.00;;;;;;;;5080345;28;9545;-77
2023/01/02 09:07:11;;;;;;;;;0.00;0.00;;;;;;;;5082861;28;9622;-77
2023/01/02 09:09:39;;;;;;;;;0.00;0.00;;;;;;;;5082496;28;9694;-75
2023/01/02 09:12:07;;;;;;;;;0.00;0.00;;;;;;;;5081215;28;9569;-75
2023/01/02 09:14:34;;;;;;;;;0.00;0.00;;;;;;;;5078632;28;9464;-75
2023/01/02 09:17:01;;;;;;;;;0.00;0.00;;;;;;;;5080316;28;9640;-76
2023/01/02 09:19:28;;;;;;;;;0.00;0.00;;;;;;;;5079485;28;10331;-75
2023/01/02 09:21:56;;;;;;;;;0.00;0.00;;;;;;;;5081600;28;9752;-75
2023/01/02 09:24:23;;;;;;;;;0.00;0.00;;;;;;;;5081378;28;9615;-76
2023/01/02 09:26:52;;;;;;;;;0.00;0.00;;;;;;;;5063783;28;10433;-74
2023/01/02 09:29:20;;;;;;;;;0.00;0.00;;;;;;;;5077908;28;9583;-74
2023/01/02 09:31:47;;;;;;;;;0.00;0.00;;;;;;;;5049896;28;9625;-74
2023/01/02 09:34:15;;;;;;;;;0.00;0.00;;;;;;;;5080062;28;10435;-77
2023/01/02 09:36:42;;;;;;;;;0.00;0.00;;;;;;;;5081506;28;9686;-73
2023/01/02 09:39:10;;;;;;;;;0.00;0.00;;;;;;;;5062790;28;9437;-75
2023/01/02 09:41:38;;;;;;;;;0.25;0.25;;;;;;;;5080700;28;9620;-75
2023/01/02 09:44:14;;;;;;;;;0.00;0.00;;;;;;;;5078498;28;9520;-75
2023/01/02 09:46:45;;;;;;;;;1.00;1.00;;;;;;;;5083545;28;9583;-75
2023/01/02 09:49:15;;;;;;;;;0.00;0.00;;;;;;;;5082163;28;9378;-73
2023/01/02 09:51:44;;;;;;;;;0.00;0.00;;;;;;;;5079983;28;9391;-76
2023/01/02 09:54:23;;;;;;;;;1.00;1.00;;;;;;;;5080802;28;9407;-71
2023/01/02 09:57:00;;;;;;;;;0.00;0.00;;;;;;;;5083485;28;9461;-75
2023/01/02 09:59:33;;;;;;;;;1.00;1.00;;;;;;;;5060608;28;9571;-73
2023/01/02 10:02:10;;;;;;;;;1.25;1.25;;;;;;;;5073735;28;9553;-72
2023/01/02 10:04:58;;;;;;;;;1.00;1.00;;;;;;;;5059975;28;9602;-73
2023/01/02 10:07:30;;;;;;;;;0.50;0.50;;;;;;;;5060480;28;9686;-74
2023/01/02 10:10:03;;;;;;;;;2.00;2.00;;;;;;;;5079505;28;9534;-73
2023/01/02 10:12:37;;;;;;;;;1.50;1.50;;;;;;;;5080862;27;9533;-73
2023/01/02 10:15:09;;;;;;;;;1.00;1.00;;;;;;;;5083805;28;9735;-73
2023/01/02 10:17:41;;;;;;;;;1.00;1.00;;;;;;;;5077400;28;9679;-74
2023/01/02 10:20:17;;;;;;;;;1.00;1.00;;;;;;;;5080302;28;9630;-73
2023/01/02 10:22:48;;;;;;;;;0.00;0.00;;;;;;;;5062455;28;9544;-74
2023/01/02 10:25:21;;;;;;;;;1.00;1.00;;;;;;;;5086140;28;9447;-73
2023/01/02 10:27:51;;;;;;;;;3.00;3.00;;;;;;;;5084650;28;10503;-74
2023/01/02 10:30:22;;;;;;;;;1.00;1.00;;;;;;;;5079007;28;9686;-74
2023/01/02 10:32:55;;;;;;;;;1.00;1.00;;;;;;;;5086144;28;9742;-74
2023/01/02 10:35:37;;;;;;;;;0.75;0.75;;;;;;;;5066842;28;9439;-74
2023/01/02 10:38:04;;;;;;;;;1.00;1.00;;;;;;;;5083765;28;9529;-75
2023/01/02 10:40:32;;;;;;;;;1.00;1.00;;;;;;;;5081149;28;9598;-73
2023/01/02 10:43:00;;;;;;;;;1.00;1.00;;;;;;;;5082037;28;9712;-74
2023/01/02 10:45:29;;;;;;;;;1.00;1.00;;;;;;;;5076433;28;10291;-74
2023/01/02 10:47:56;;;;;;;;;1.25;1.25;;;;;;;;5080104;28;9459;-74
2023/01/02 10:50:25;;;;;;;;;1.00;1.00;;;;;;;;5063532;28;9526;-74
2023/01/02 10:52:54;;;;;;;;;2.50;1.25;;;;;;;;5083256;28;9620;-73
2023/01/02 10:55:33;;;;;;;;;1.00;1.00;;;;;;;;5080981;28;9632;-73
2023/01/02 10:58:05;;;;;;;;;3.50;2.00;;;;;;;;5079622;28;9670;-74
2023/01/02 11:00:35;;;;;;;;;2.00;2.00;;;;;;;;5081187;28;9613;-74
2023/01/02 11:03:08;;;;;;;;;2.00;2.00;;;;;;;;5074553;28;9676;-74
2023/01/02 11:05:45;;;;;;;;;2.00;2.00;;;;;;;;5079775;28;9747;-74
2023/01/02 11:08:14;;;;;;;;;2.75;2.25;;;;;;;;5075444;28;9719;-75
2023/01/02 11:10:42;;;;;;;;;2.00;2.00;;;;;;;;5083001;28;9780;-73
2023/01/02 11:13:12;;;;;;;;;2.00;2.00;;;;;;;;5083074;28;9590;-73
2023/01/02 11:15:50;;;;;;;;;2.75;2.75;;;;;;;;5077661;28;9624;-73
2023/01/02 11:18:22;;;;;;;;;3.00;3.00;;;;;;;;5075729;28;10296;-73
2023/01/02 11:20:54;;;;;;;;;5.00;2.75;;;;;;;;5081115;28;9557;-74
2023/01/02 11:23:24;;;;;;;;;3.00;3.00;;;;;;;;5082560;28;10254;-74
2023/01/02 11:25:52;;;;;;;;;2.50;2.50;;;;;;;;5060762;28;9614;-73
2023/01/02 11:28:22;;;;;;;;;2.00;2.00;;;;;;;;5082817;28;9545;-74
2023/01/02 11:30:53;;;;;;;;;2.00;2.00;;;;;;;;5080145;28;9403;-73
2023/01/02 11:33:30;;;;;;;;;3.00;2.25;;;;;;;;5081611;28;9461;-73
2023/01/02 11:36:05;;;;;;;;;3.00;3.00;;;;;;;;5081810;28;9607;-73
2023/01/02 11:38:42;;;;;;;;;1.50;1.00;;;;;;;;5076264;28;9547;-74
2023/01/02 11:43:47;;;;;;;;;2.00;2.00;;;;;;;;5077840;28;9568;-73
2023/01/02 11:44:15;;;;;;;;;1.00;1.00;;;;;;;;5060148;28;9516;-73
2023/01/02 11:46:44;;;;;;;;;2.50;1.00;;;;;;;;5077412;28;9619;-73
2023/01/02 11:49:14;;;;;;;;;2.00;2.00;;;;;;;;5072564;28;9488;-72
2023/01/02 11:51:42;;;;;;;;;2.00;2.00;;;;;;;;5079248;28;9548;-73
2023/01/02 11:54:14;;;;;;;;;0.25;0.25;;;;;;;;5069239;28;9566;-75
2023/01/02 11:56:44;;;;;;;;;1.75;1.75;;;;;;;;5071679;28;9533;-73
2023/01/02 11:59:16;;;;;;;;;1.00;1.00;;;;;;;;5064626;28;9471;-75
2023/01/02 12:01:53;;;;;;;;;3.00;2.00;;;;;;;;5061351;28;9463;-74
2023/01/02 12:04:20;;;;;;;;;3.25;2.00;;;;;;;;5070969;28;9444;-74
2023/01/02 12:07:07;;;;;;;;;1.00;1.00;;;;;;;;5078979;28;9454;-74
2023/01/02 12:09:42;;;;;;;;;1.00;1.00;;;;;;;;5059560;28;9317;-76
2023/01/02 12:12:20;;;;;;;;;0.33;0.33;;;;;;;;5015773;28;9479;-75
2023/01/02 12:15:03;;;;;;;;;0.00;0.00;;;;;;;;5082729;28;9349;-74
2023/01/02 12:17:37;;;;;;;;;0.00;0.00;;;;;;;;5081075;28;9301;-75
2023/01/02 12:20:16;;;;;;;;;1.00;1.00;;;;;;;;5084062;28;9305;-75
2023/01/02 12:23:05;;;;;;;;;1.00;1.00;;;;;;;;5066624;28;9610;-74
2023/01/02 12:25:51;;;;;;;;;1.00;1.00;;;;;;;;5064702;28;9346;-83
2023/01/02 12:28:38;;;;;;;;;1.00;1.00;;;;;;;;5034492;28;9412;-73
2023/01/02 12:31:19;;;;;;;;;2.75;1.25;;;;;;;;5043519;28;9498;-75
2023/01/02 12:33:55;;;;;;;;;1.00;1.00;;;;;;;;5055890;28;9379;-74
2023/01/02 12:36:37;;;;;;;;;1.00;1.00;;;;;;;;5079161;28;9430;-74
2023/01/02 12:39:24;;;;;;;;;0.00;0.00;;;;;;;;5074219;28;9515;-75
2023/01/02 12:41:59;;;;;;;;;1.00;1.00;;;;;;;;5083159;28;9312;-76
2023/01/02 12:44:42;;;;;;;;;0.33;0.33;;;;;;;;5082666;28;10245;-75
2023/01/02 12:47:35;;;;;;;;;0.33;0.33;;;;;;;;5073664;28;9381;-75
2023/01/02 12:50:32;;;;;;;;;0.00;0.00;;;;;;;;5076669;28;10268;-75
2023/01/02 12:53:12;;;;;;;;;0.75;0.75;;;;;;;;5045292;28;9460;-77
2023/01/02 12:55:49;;;;;;;;;0.75;0.25;;;;;;;;5076630;28;9544;-77
2023/01/02 12:58:28;;;;;;;;;2.00;0.00;;;;;;;;5067389;28;9640;-77
2023/01/02 13:01:07;;;;;;;;;0.00;0.00;;;;;;;;5066801;28;9590;-76
2023/01/02 13:03:47;;;;;;;;;0.00;0.00;;;;;;;;5044539;28;9526;-77
2023/01/02 13:06:19;;;;;;;;;0.00;0.00;;;;;;;;5061775;28;10470;-78
2023/01/02 13:08:52;;;;;;;;;0.00;0.00;;;;;;;;5064878;28;9488;-76
2023/01/02 13:11:36;;;;;;;;;0.00;0.00;;;;;;;;5046409;28;9474;-76
2023/01/02 13:14:05;;;;;;;;;1.00;0.00;;;;;;;;5064454;28;9448;-77
2023/01/02 13:16:33;;;;;;;;;0.00;0.00;;;;;;;;5061489;28;9473;-77
2023/01/02 13:19:16;;;;;;;;;0.25;0.25;;;;;;;;5067346;28;10320;-77
2023/01/02 13:21:49;;;;;;;;;0.00;0.00;;;;;;;;5063929;28;9584;-76
2023/01/02 13:24:22;;;;;;;;;0.50;0.00;;;;;;;;5030207;28;9464;-77
2023/01/02 13:26:50;;;;;;;;;0.00;0.00;;;;;;;;5049035;28;9664;-76
2023/01/02 13:29:26;;;;;;;;;0.00;0.00;;;;;;;;5046490;28;9710;-77
2023/01/02 13:31:54;;;;;;;;;0.00;0.00;;;;;;;;5047510;28;9700;-77
2023/01/02 13:34:24;;;;;;;;;0.00;0.00;;;;;;;;5067899;28;9426;-77
2023/01/02 13:36:59;;;;;;;;;0.00;0.00;;;;;;;;5050423;28;9394;-77
2023/01/02 13:39:28;;;;;;;;;0.00;0.00;;;;;;;;5065156;28;9479;-79
2023/01/02 13:44:46;;;;;;;;;1.00;0.00;;;;;;;;5068933;28;9065;-77
2023/01/02 13:47:16;;;;;;;;;0.00;0.00;;;;;;;;5050359;28;8998;-78
2023/01/02 13:49:44;;;;;;;;;0.00;0.00;;;;;;;;5060796;28;9012;-77
2023/01/02 13:52:18;;;;;;;;;0.00;0.00;;;;;;;;5062352;28;8863;-78
2023/01/02 13:55:12;;;;;;;;;0.00;0.00;;;;;;;;5041383;28;8849;-75
2023/01/02 13:57:39;;;;;;;;;0.00;0.00;;;;;;;;5061142;28;8896;-77
2023/01/02 14:00:30;;;;;;;;;0.00;0.00;;;;;;;;5042271;28;8885;-79
2023/01/02 14:03:26;;;;;;;;;0.00;0.00;;;;;;;;5064807;28;8969;-78
2023/01/02 14:06:02;;;;;;;;;0.00;0.00;;;;;;;;5058679;28;8815;-77
2023/01/02 14:08:32;;;;;;;;;0.25;0.00;;;;;;;;5041955;28;8838;-77
2023/01/02 14:11:05;;;;;;;;;0.00;0.00;;;;;;;;5057839;28;8950;-78
2023/01/02 14:13:35;;;;;;;;;0.00;0.00;;;;;;;;5061184;28;8848;-76
2023/01/02 14:16:29;;;;;;;;;0.00;0.00;;;;;;;;5043713;28;8858;-77
2023/01/02 14:19:21;;;;;;;;;0.00;0.00;;;;;;;;5062919;28;8868;-79
2023/01/02 14:22:01;;;;;;;;;0.00;0.00;;;;;;;;5038090;28;8900;-77
2023/01/02 14:24:34;;;;;;;;;0.00;0.00;;;;;;;;5064350;28;8921;-76
2023/01/02 14:27:04;;;;;;;;;0.25;0.00;;;;;;;;5028125;28;8840;-76
2023/01/02 14:29:32;;;;;;;;;0.00;0.00;;;;;;;;5063390;28;9613;-76
2023/01/02 14:32:04;;;;;;;;;1.00;0.00;;;;;;;;5042516;28;8888;-77
2023/01/02 14:34:32;;;;;;;;;0.25;0.00;;;;;;;;5045947;28;8826;-78
2023/01/02 14:37:01;;;;;;;;;0.00;0.00;;;;;;;;5061201;28;8860;-76
2023/01/02 14:39:32;;;;;;;;;0.00;0.00;;;;;;;;5059844;28;8857;-76
2023/01/02 14:45:19;;;;;;;;;0.00;0.00;;;;;;;;4941098;28;8857;-76
2023/01/02 14:47:50;;;;;;;;;0.00;0.00;;;;;;;;4984534;28;8961;-77
2023/01/02 14:50:22;;;;;;;;;0.00;0.00;;;;;;;;4994339;28;8886;-76
2023/01/02 14:52:56;;;;;;;;;0.00;0.00;;;;;;;;5045464;27;8853;-76
2023/01/02 14:55:27;;;;;;;;;0.00;0.00;;;;;;;;5042399;28;8881;-77
2023/01/02 14:57:56;;;;;;;;;0.00;0.00;;;;;;;;5052186;28;8826;-77
2023/01/02 15:00:30;;;;;;;;;0.00;0.00;;;;;;;;5077082;28;8899;-77
2023/01/02 15:03:07;;;;;;;;;0.00;0.00;;;;;;;;5061823;28;8861;-77
2023/01/02 15:05:37;;;;;;;;;0.00;0.00;;;;;;;;5042118;28;8959;-76
2023/01/02 15:08:07;;;;;;;;;0.00;0.00;;;;;;;;5071897;28;8871;-76
2023/01/02 15:10:57;;;;;;;;;0.00;0.00;;;;;;;;5058919;28;8902;-76
2023/01/02 15:13:27;;;;;;;;;0.00;0.00;;;;;;;;5075435;28;8861;-77
2023/01/02 15:15:56;;;;;;;;;0.00;0.00;;;;;;;;5075622;28;8873;-75
2023/01/02 15:18:28;;;;;;;;;0.00;0.00;;;;;;;;5078623;28;8846;-75
2023/01/02 15:20:56;;;;;;;;;1.00;0.00;;;;;;;;5075682;28;8924;-75
2023/01/02 15:23:25;;;;;;;;;0.33;0.33;;;;;;;;5074591;28;9021;-76
2023/01/02 15:25:55;;;;;;;;;0.00;0.00;;;;;;;;5077171;28;9024;-76
2023/01/02 15:28:25;;;;;;;;;0.00;0.00;;;;;;;;5039542;28;9083;-76